createdAt,value
2017-12-04T00:01:35.917Z,20.93
2017-12-04T00:04:02.273Z,23.37
2017-12-04T00:06:28.612Z,19.60
2017-12-04T00:08:54.971Z,19.80
2017-12-04T00:11:21.287Z,25.70
2017-12-04T00:13:47.607Z,23.90
2017-12-04T00:16:13.948Z,21.03
2017-12-04T00:18:40.301Z,21.00
2017-12-04T00:21:06.666Z,25.87
2017-12-04T00:23:32.954Z,19.60
2017-12-04T00:26:00.003Z,25.00
2017-12-04T00:28:26.314Z,20.97
2017-12-04T00:30:52.635Z,22.10
2017-12-04T00:33:18.968Z,19.43
2017-12-04T00:35:45.260Z,17.37
2017-12-04T00:38:11.566Z,20.50
2017-12-04T00:40:38.620Z,26.07
2017-12-04T00:43:04.913Z,22.83
2017-12-04T00:45:31.236Z,26.67
2017-12-04T00:47:57.524Z,13.70
2017-12-04T00:50:23.824Z,21.27
2017-12-04T00:52:50.906Z,14.40
2017-12-04T00:55:17.236Z,17.43
2017-12-04T00:57:43.539Z,20.73
2017-12-04T01:00:10.598Z,11.43
2017-12-04T01:02:36.923Z,17.37
2017-12-04T01:05:03.235Z,14.40
2017-12-04T01:07:29.626Z,13.27
2017-12-04T01:09:55.950Z,11.07
2017-12-04T01:12:22.285Z,15.07
2017-12-04T01:14:48.608Z,12.73
2017-12-04T01:17:14.918Z,10.90
2017-12-04T01:19:48.210Z,8.63
2017-12-04T01:22:14.527Z,8.50
2017-12-04T01:24:40.825Z,13.03
2017-12-04T01:27:07.152Z,10.53
2017-12-04T01:29:33.480Z,10.17
2017-12-04T01:32:01.263Z,11.17
2017-12-04T01:34:27.565Z,6.43
2017-12-04T01:36:53.866Z,11.30
2017-12-04T01:39:20.189Z,12.77
2017-12-04T01:41:46.517Z,7.67
2017-12-04T01:44:12.822Z,11.70
2017-12-04T01:46:39.165Z,11.27
2017-12-04T01:49:06.253Z,11.50
2017-12-04T01:51:32.957Z,9.73
2017-12-04T01:53:59.316Z,16.40
2017-12-04T01:56:25.619Z,6.93
2017-12-04T01:58:51.943Z,10.97
2017-12-04T02:01:18.266Z,13.27
2017-12-04T02:03:44.580Z,8.20
2017-12-04T02:06:11.633Z,13.10
2017-12-04T02:08:38.705Z,14.33
2017-12-04T02:11:06.442Z,7.70
2017-12-04T02:13:32.867Z,8.63
2017-12-04T02:15:59.203Z,12.83
2017-12-04T02:18:26.253Z,12.93
2017-12-04T02:20:53.308Z,9.57
2017-12-04T02:23:20.361Z,13.80
2017-12-04T02:25:46.687Z,15.03
2017-12-04T02:28:13.028Z,8.77
2017-12-04T02:30:39.358Z,9.70
2017-12-04T02:33:05.668Z,8.17
2017-12-04T02:35:32.752Z,10.37
2017-12-04T02:37:59.089Z,11.60
2017-12-04T02:40:25.418Z,10.30
2017-12-04T02:42:51.749Z,12.97
2017-12-04T02:45:18.117Z,9.27
2017-12-04T02:47:44.487Z,6.70
2017-12-04T02:50:10.808Z,9.80
2017-12-04T02:52:37.145Z,13.13
2017-12-04T02:55:04.226Z,9.27
2017-12-04T02:57:30.574Z,12.10
2017-12-04T02:59:56.947Z,7.30
2017-12-04T03:02:23.990Z,12.77
2017-12-04T03:04:51.030Z,8.90
2017-12-04T03:07:18.085Z,11.23
2017-12-04T03:09:45.118Z,10.87
2017-12-04T03:12:11.430Z,9.47
2017-12-04T03:14:37.727Z,12.57
2017-12-04T03:17:04.052Z,8.40
2017-12-04T03:19:30.415Z,7.40
2017-12-04T03:21:56.767Z,5.93
2017-12-04T03:24:23.829Z,6.47
2017-12-04T03:26:50.893Z,16.10
2017-12-04T03:29:17.229Z,7.53
2017-12-04T03:31:43.573Z,14.53
2017-12-04T03:34:09.910Z,14.20
2017-12-04T03:36:36.235Z,13.30
2017-12-04T03:39:04.151Z,9.23
2017-12-04T03:41:31.773Z,9.57
2017-12-04T03:43:58.107Z,13.67
2017-12-04T03:46:24.460Z,11.63
2017-12-04T03:48:50.762Z,8.53
2017-12-04T03:51:17.071Z,9.77
2017-12-04T03:53:44.104Z,10.27
2017-12-04T03:56:11.117Z,9.70
2017-12-04T03:58:37.433Z,10.40
2017-12-04T04:01:03.713Z,6.40
2017-12-04T04:03:30.759Z,13.27
2017-12-04T04:05:57.866Z,8.27
2017-12-04T04:08:24.209Z,7.93
2017-12-04T04:10:51.993Z,10.43
2017-12-04T04:13:19.032Z,9.87
2017-12-04T04:15:45.317Z,8.90
2017-12-04T04:18:11.613Z,12.17
2017-12-04T04:20:38.653Z,12.83
2017-12-04T04:23:05.710Z,9.13
2017-12-04T04:25:32.008Z,10.77
2017-12-04T04:27:59.796Z,12.90
2017-12-04T04:30:26.836Z,11.77
2017-12-04T04:32:53.866Z,9.27
2017-12-04T04:35:20.173Z,10.37
2017-12-04T04:37:46.458Z,9.10
2017-12-04T04:40:13.506Z,11.57
2017-12-04T04:42:39.883Z,11.07
2017-12-04T04:45:06.197Z,10.97
2017-12-04T04:47:32.516Z,8.47
2017-12-04T04:49:58.854Z,6.77
2017-12-04T04:52:25.198Z,7.00
2017-12-04T04:54:51.574Z,8.20
2017-12-04T04:57:18.610Z,12.77
2017-12-04T05:02:17.955Z,13.90
2017-12-04T05:04:44.272Z,6.40
2017-12-04T05:07:11.341Z,9.90
2017-12-04T05:09:37.693Z,10.77
2017-12-04T05:12:04.023Z,11.77
2017-12-04T05:14:30.329Z,8.37
2017-12-04T05:16:56.656Z,9.00
2017-12-04T05:19:23.015Z,12.23
2017-12-04T05:21:49.336Z,9.67
2017-12-04T05:24:15.672Z,7.20
2017-12-04T05:26:42.014Z,8.87
2017-12-04T05:29:08.326Z,7.77
2017-12-04T05:31:34.647Z,11.03
2017-12-04T05:34:00.952Z,7.27
2017-12-04T05:36:28.009Z,6.20
2017-12-04T05:38:55.079Z,5.63
2017-12-04T05:41:21.420Z,11.63
2017-12-04T05:43:47.735Z,11.73
2017-12-04T05:46:14.061Z,9.90
2017-12-04T05:48:40.387Z,9.43
2017-12-04T05:51:06.692Z,6.80
2017-12-04T05:53:32.991Z,9.37
2017-12-04T05:55:59.290Z,7.07
2017-12-04T05:58:25.925Z,10.33
2017-12-04T06:00:55.252Z,5.33
2017-12-04T06:03:21.564Z,7.30
2017-12-04T06:05:47.857Z,10.40
2017-12-04T06:08:14.162Z,8.63
2017-12-04T06:10:40.454Z,7.37
2017-12-04T06:13:06.747Z,9.57
2017-12-04T06:15:33.773Z,7.00
2017-12-04T06:18:00.071Z,5.67
2017-12-04T06:20:26.367Z,6.70
2017-12-04T06:22:52.677Z,6.00
2017-12-04T06:25:19.698Z,9.07
2017-12-04T06:27:46.010Z,8.00
2017-12-04T06:30:12.364Z,6.80
2017-12-04T06:32:38.681Z,10.83
2017-12-04T06:35:04.989Z,8.80
2017-12-04T06:37:31.287Z,6.53
2017-12-04T06:39:57.584Z,6.87
2017-12-04T06:42:23.876Z,11.33
2017-12-04T06:44:50.173Z,12.13
2017-12-04T06:47:16.504Z,8.03
2017-12-04T06:49:42.842Z,11.30
2017-12-04T06:52:09.165Z,7.70
2017-12-04T06:54:36.241Z,5.03
2017-12-04T06:57:02.525Z,9.47
2017-12-04T06:59:29.558Z,10.97
2017-12-04T07:01:55.878Z,6.00
2017-12-04T07:04:22.966Z,9.40
2017-12-04T07:06:49.272Z,10.20
2017-12-04T07:09:15.585Z,8.83
2017-12-04T07:11:41.921Z,8.17
2017-12-04T07:14:08.984Z,6.87
2017-12-04T07:16:36.024Z,7.30
2017-12-04T07:19:03.094Z,9.03
2017-12-04T07:21:29.421Z,9.73
2017-12-04T07:23:56.459Z,10.13
2017-12-04T07:26:22.854Z,5.70
2017-12-04T07:28:49.221Z,5.53
2017-12-04T07:31:16.335Z,5.27
2017-12-04T07:33:42.674Z,11.53
2017-12-04T07:36:08.998Z,9.43
2017-12-04T07:38:35.313Z,9.60
2017-12-04T07:41:01.672Z,8.53
2017-12-04T07:43:28.792Z,9.57
2017-12-04T07:45:55.157Z,8.93
2017-12-04T07:48:22.214Z,6.73
2017-12-04T07:50:49.324Z,7.50
2017-12-04T07:53:15.687Z,9.70
2017-12-04T07:55:41.998Z,6.40
2017-12-04T07:58:08.347Z,9.13
2017-12-04T08:00:35.428Z,7.33
2017-12-04T08:03:01.772Z,11.17
2017-12-04T08:05:28.104Z,7.50
2017-12-04T08:07:54.467Z,8.63
2017-12-04T08:10:20.804Z,9.93
2017-12-04T08:12:47.153Z,7.30
2017-12-04T08:15:14.305Z,11.37
2017-12-04T08:17:40.807Z,7.33
2017-12-04T08:20:07.327Z,9.60
2017-12-04T08:22:33.828Z,8.70
2017-12-04T08:25:00.229Z,11.37
2017-12-04T08:27:26.761Z,8.33
2017-12-04T08:29:53.176Z,7.63
2017-12-04T08:32:19.572Z,8.37
2017-12-04T08:34:46.100Z,6.07
2017-12-04T08:37:12.476Z,5.77
2017-12-04T08:39:38.887Z,10.83
2017-12-04T08:42:05.451Z,5.70
2017-12-04T08:44:32.641Z,6.90
2017-12-04T08:46:59.086Z,9.90
2017-12-04T08:49:25.481Z,8.67
2017-12-04T08:51:52.653Z,8.90
2017-12-04T08:54:19.049Z,6.77
2017-12-04T08:56:45.467Z,12.20
2017-12-04T08:59:11.975Z,8.50
2017-12-04T09:01:38.381Z,9.97
2017-12-04T09:04:04.830Z,6.90
2017-12-04T09:06:31.232Z,6.17
2017-12-04T09:08:57.648Z,7.30
2017-12-04T09:11:24.012Z,9.00
2017-12-04T09:13:50.414Z,9.67
2017-12-04T09:16:17.585Z,9.93
2017-12-04T09:18:43.967Z,6.83
2017-12-04T09:21:10.335Z,5.43
2017-12-04T09:23:37.517Z,8.20
2017-12-04T09:26:03.902Z,9.77
2017-12-04T09:28:31.046Z,7.67
2017-12-04T09:30:58.952Z,6.57
2017-12-04T09:33:25.329Z,9.43
2017-12-04T09:35:51.780Z,6.97
2017-12-04T09:38:18.235Z,5.53
2017-12-04T09:40:44.783Z,7.17
2017-12-04T09:43:11.343Z,7.23
2017-12-04T09:45:37.873Z,5.20
2017-12-04T09:48:04.462Z,10.80
2017-12-04T09:50:30.987Z,7.07
2017-12-04T09:52:58.157Z,7.40
2017-12-04T09:55:24.555Z,5.63
2017-12-04T09:57:50.945Z,7.50
2017-12-04T10:00:17.292Z,9.63
2017-12-04T10:02:43.767Z,7.07
2017-12-04T10:05:10.206Z,6.40
2017-12-04T10:07:36.601Z,9.87
2017-12-04T10:10:02.966Z,5.73
2017-12-04T10:12:29.376Z,5.90
2017-12-04T10:14:55.770Z,6.70
2017-12-04T10:17:22.263Z,8.10
2017-12-04T10:19:48.749Z,7.63
2017-12-04T10:22:15.132Z,8.37
2017-12-04T10:24:41.583Z,9.47
2017-12-04T10:27:08.666Z,8.33
2017-12-04T10:29:35.092Z,10.17
2017-12-04T10:32:02.237Z,7.00
2017-12-04T10:34:28.629Z,9.97
2017-12-04T10:36:55.015Z,7.93
2017-12-04T10:39:21.376Z,7.30
2017-12-04T10:41:47.971Z,6.57
2017-12-04T10:44:14.393Z,8.27
2017-12-04T10:46:40.962Z,6.37
2017-12-04T10:49:07.438Z,6.27
2017-12-04T10:51:34.570Z,7.13
2017-12-04T10:54:01.784Z,5.53
2017-12-04T10:56:29.017Z,8.50
2017-12-04T10:58:55.717Z,6.77
2017-12-04T11:01:22.980Z,5.83
2017-12-04T11:03:49.435Z,4.67
2017-12-04T11:06:15.812Z,5.20
2017-12-04T11:08:42.240Z,6.30
2017-12-04T11:11:09.424Z,8.80
2017-12-04T11:13:36.601Z,6.37
2017-12-04T11:16:03.020Z,6.97
2017-12-04T11:18:30.142Z,3.90
2017-12-04T11:20:57.355Z,5.30
2017-12-04T11:23:23.846Z,5.20
2017-12-04T11:25:50.426Z,6.47
2017-12-04T11:28:16.801Z,7.50
2017-12-04T11:30:44.095Z,4.13
2017-12-04T11:33:10.481Z,6.10
2017-12-04T11:35:37.734Z,7.43
2017-12-04T11:38:04.962Z,5.60
2017-12-04T11:40:31.376Z,8.83
2017-12-04T11:42:57.851Z,5.27
2017-12-04T11:45:24.545Z,6.23
2017-12-04T11:47:51.745Z,6.57
2017-12-04T11:50:18.172Z,7.57
2017-12-04T11:52:44.562Z,4.60
2017-12-04T11:55:11.001Z,6.20
2017-12-04T11:57:37.469Z,4.90
2017-12-04T12:00:04.657Z,6.67
2017-12-04T12:02:31.092Z,3.10
2017-12-04T12:04:57.584Z,7.10
2017-12-04T12:07:24.001Z,5.13
2017-12-04T12:09:51.161Z,7.10
2017-12-04T12:12:17.606Z,6.03
2017-12-04T12:14:43.937Z,5.87
2017-12-04T12:17:11.091Z,3.23
2017-12-04T12:19:37.445Z,5.50
2017-12-04T12:22:03.814Z,7.60
2017-12-04T12:24:30.173Z,7.63
2017-12-04T12:26:56.541Z,5.70
2017-12-04T12:29:22.920Z,4.73
2017-12-04T12:31:49.218Z,7.87
2017-12-04T12:34:15.542Z,4.00
2017-12-04T12:36:41.876Z,8.83
2017-12-04T12:39:08.980Z,4.87
2017-12-04T12:41:36.200Z,6.97
2017-12-04T12:44:02.871Z,4.53
2017-12-04T12:46:29.318Z,5.87
2017-12-04T12:48:55.943Z,7.57
2017-12-04T12:51:22.443Z,5.77
2017-12-04T12:53:48.875Z,6.53
2017-12-04T12:56:15.337Z,5.90
2017-12-04T12:58:41.752Z,3.70
2017-12-04T13:01:08.137Z,9.93
2017-12-04T13:03:34.527Z,4.30
2017-12-04T13:06:00.956Z,3.73
2017-12-04T13:08:27.317Z,6.10
2017-12-04T13:10:54.381Z,7.40
2017-12-04T13:13:21.442Z,4.60
2017-12-04T13:15:47.837Z,7.07
2017-12-04T13:18:14.937Z,3.20
2017-12-04T13:20:41.344Z,9.70
2017-12-04T13:23:07.663Z,8.20
2017-12-04T13:25:34.725Z,6.93
2017-12-04T13:28:01.879Z,5.93
2017-12-04T13:30:28.325Z,8.07
2017-12-04T13:33:07.085Z,3.73
2017-12-04T13:35:45.826Z,8.13
2017-12-04T13:38:12.183Z,5.73
2017-12-04T13:40:38.537Z,9.47
2017-12-04T13:43:04.935Z,5.63
2017-12-04T13:45:32.107Z,6.00
2017-12-04T13:47:58.465Z,6.23
2017-12-04T13:50:24.986Z,7.57
2017-12-04T13:52:51.390Z,7.00
2017-12-04T13:55:17.785Z,9.77
2017-12-04T13:57:44.952Z,5.70
2017-12-04T14:00:11.372Z,6.30
2017-12-04T14:02:37.780Z,12.67
2017-12-04T14:05:04.141Z,4.87
2017-12-04T14:07:30.494Z,6.80
2017-12-04T14:09:56.893Z,7.43
2017-12-04T14:12:24.028Z,5.80
2017-12-04T14:14:51.167Z,4.40
2017-12-04T14:17:17.584Z,7.60
2017-12-04T14:19:43.981Z,6.97
2017-12-04T14:22:11.054Z,5.87
2017-12-04T14:24:37.482Z,7.43
2017-12-04T14:27:03.819Z,6.40
2017-12-04T14:29:30.164Z,9.33
2017-12-04T14:31:56.495Z,6.03
2017-12-04T14:34:22.825Z,4.63
2017-12-04T14:36:49.145Z,7.47
2017-12-04T14:39:15.497Z,6.47
2017-12-04T14:41:41.841Z,3.60
2017-12-04T14:44:08.195Z,6.13
2017-12-04T14:46:35.315Z,8.40
2017-12-04T14:49:01.682Z,8.73
2017-12-04T14:51:28.047Z,7.07
2017-12-04T14:53:54.439Z,6.90
2017-12-04T14:56:20.806Z,7.20
2017-12-04T14:58:47.130Z,8.40
2017-12-04T15:01:13.502Z,5.97
2017-12-04T15:03:39.907Z,6.97
2017-12-04T15:06:06.269Z,7.37
2017-12-04T15:08:32.645Z,6.50
2017-12-04T15:10:58.993Z,6.93
2017-12-04T15:13:25.357Z,4.97
2017-12-04T15:15:52.462Z,11.30
2017-12-04T15:18:18.822Z,6.47
2017-12-04T15:20:45.149Z,5.90
2017-12-04T15:23:11.457Z,6.43
2017-12-04T15:25:38.526Z,4.87
2017-12-04T15:28:04.893Z,5.00
2017-12-04T15:30:31.214Z,4.97
2017-12-04T15:32:57.533Z,6.60
2017-12-04T15:35:23.866Z,9.67
2017-12-04T15:37:50.183Z,8.23
2017-12-04T15:40:16.516Z,7.10
2017-12-04T15:42:42.836Z,4.67
2017-12-04T15:45:09.161Z,5.30
2017-12-04T15:47:35.460Z,3.70
2017-12-04T15:50:02.614Z,5.10
2017-12-04T15:52:29.690Z,4.67
2017-12-04T15:54:56.013Z,6.87
2017-12-04T15:57:22.341Z,9.90
2017-12-04T15:59:48.664Z,8.73
2017-12-04T16:02:15.000Z,4.30
2017-12-04T16:04:41.316Z,8.90
2017-12-04T16:07:07.648Z,11.10
2017-12-04T16:09:33.977Z,5.37
2017-12-04T16:12:00.335Z,9.90
2017-12-04T16:14:26.646Z,6.10
2017-12-04T16:16:52.955Z,6.43
2017-12-04T16:19:20.040Z,10.00
2017-12-04T16:21:46.363Z,7.93
2017-12-04T16:24:12.704Z,4.40
2017-12-04T16:26:39.008Z,5.97
2017-12-04T16:29:06.056Z,6.87
2017-12-04T16:31:33.103Z,6.30
2017-12-04T16:33:59.440Z,9.67
2017-12-04T16:36:25.790Z,7.27
2017-12-04T16:38:52.208Z,5.93
2017-12-04T16:41:18.557Z,6.97
2017-12-04T16:43:44.908Z,7.67
2017-12-04T16:46:11.286Z,8.00
2017-12-04T16:48:38.361Z,6.47
2017-12-04T16:51:04.711Z,6.10
2017-12-04T16:53:31.040Z,9.50
2017-12-04T16:55:57.354Z,7.40
2017-12-04T16:58:23.684Z,6.97
2017-12-04T17:00:50.764Z,8.93
2017-12-04T17:03:17.860Z,4.23
2017-12-04T17:05:44.478Z,7.83
2017-12-04T17:08:10.851Z,6.10
2017-12-04T17:10:37.190Z,4.97
2017-12-04T17:13:03.534Z,5.53
2017-12-04T17:15:29.884Z,6.63
2017-12-04T17:17:56.216Z,6.00
2017-12-04T17:20:23.302Z,10.10
2017-12-04T17:22:49.654Z,7.50
2017-12-04T17:25:16.027Z,11.10
2017-12-04T17:27:43.124Z,6.40
2017-12-04T17:30:09.459Z,15.00
2017-12-04T17:32:35.861Z,8.17
2017-12-04T17:35:02.913Z,4.80
2017-12-04T17:37:29.240Z,7.20
2017-12-04T17:39:56.294Z,8.13
2017-12-04T17:42:22.677Z,12.43
2017-12-04T17:44:49.050Z,10.17
2017-12-04T17:47:15.394Z,11.27
2017-12-04T17:49:41.802Z,5.77
2017-12-04T17:52:08.181Z,12.20
2017-12-04T17:54:34.593Z,9.83
2017-12-04T17:57:01.734Z,6.73
2017-12-04T17:59:28.070Z,7.80
2017-12-04T18:01:54.396Z,10.13
2017-12-04T18:04:20.734Z,8.77
2017-12-04T18:06:47.075Z,8.57
2017-12-04T18:09:13.459Z,11.53
2017-12-04T18:11:40.558Z,8.20
2017-12-04T18:14:06.910Z,9.37
2017-12-04T18:16:33.299Z,11.83
2017-12-04T18:18:59.654Z,10.30
2017-12-04T18:21:26.014Z,11.53
2017-12-04T18:23:52.337Z,13.00
2017-12-04T18:26:18.693Z,10.93
2017-12-04T18:28:45.765Z,9.07
2017-12-04T18:31:12.131Z,9.40
2017-12-04T18:33:38.489Z,12.03
2017-12-04T18:36:04.816Z,10.57
2017-12-04T18:38:31.158Z,8.00
2017-12-04T18:40:58.240Z,10.83
2017-12-04T18:43:24.575Z,6.23
2017-12-04T18:45:50.996Z,10.20
2017-12-04T18:48:17.335Z,8.63
2017-12-04T18:50:43.702Z,8.70
2017-12-04T18:53:10.018Z,7.03
2017-12-04T18:55:36.484Z,6.73
2017-12-04T18:58:03.025Z,7.33
2017-12-04T19:00:29.489Z,11.00
2017-12-04T19:02:55.972Z,6.23
2017-12-04T19:05:22.339Z,8.57
2017-12-04T19:07:48.749Z,10.57
2017-12-04T19:10:15.871Z,8.10
2017-12-04T19:12:42.225Z,4.67
2017-12-04T19:15:08.652Z,8.47
2017-12-04T19:17:35.762Z,8.57
2017-12-04T19:20:02.128Z,8.00
2017-12-04T19:22:29.970Z,11.63
2017-12-04T19:24:56.372Z,6.70
2017-12-04T19:27:22.724Z,9.10
2017-12-04T19:29:49.072Z,6.70
2017-12-04T19:32:15.547Z,8.80
2017-12-04T19:34:41.966Z,5.30
2017-12-04T19:37:09.090Z,6.70
2017-12-04T19:39:35.689Z,4.83
2017-12-04T19:42:02.839Z,8.73
2017-12-04T19:44:29.206Z,5.80
2017-12-04T19:46:55.712Z,9.30
2017-12-04T19:49:22.189Z,9.20
2017-12-04T19:51:49.326Z,8.10
2017-12-04T19:54:15.776Z,11.37
2017-12-04T19:56:42.905Z,10.13
2017-12-04T19:59:09.325Z,6.37
2017-12-04T20:01:35.665Z,9.40
2017-12-04T20:04:02.128Z,8.97
2017-12-04T20:06:29.294Z,8.13
2017-12-04T20:08:55.702Z,13.70
2017-12-04T20:11:22.946Z,9.00
2017-12-04T20:13:50.095Z,8.60
2017-12-04T20:16:16.488Z,6.17
2017-12-04T20:18:42.834Z,6.17
2017-12-04T20:21:09.186Z,5.37
2017-12-04T20:23:35.506Z,10.33
2017-12-04T20:26:01.917Z,6.13
2017-12-04T20:28:28.342Z,11.10
2017-12-04T20:30:54.688Z,10.87
2017-12-04T20:33:20.996Z,10.73
2017-12-04T20:35:48.158Z,8.63
2017-12-04T20:38:14.492Z,8.63
2017-12-04T20:40:40.853Z,14.00
2017-12-04T20:43:08.695Z,8.90
2017-12-04T20:45:35.039Z,8.23
2017-12-04T20:48:01.429Z,5.47
2017-12-04T20:50:27.770Z,10.97
2017-12-04T20:52:54.102Z,11.38
2017-12-04T20:55:20.425Z,8.70
2017-12-04T20:57:46.752Z,7.77
2017-12-04T21:00:13.112Z,7.47
2017-12-04T21:02:39.485Z,6.23
2017-12-04T21:05:05.835Z,5.73
2017-12-04T21:07:45.089Z,8.20
2017-12-04T21:10:23.832Z,8.90
2017-12-04T21:13:03.063Z,9.10
2017-12-04T21:15:31.308Z,5.30
2017-12-04T21:17:58.366Z,13.00
2017-12-04T21:20:24.675Z,9.20
2017-12-04T21:22:51.753Z,8.50
2017-12-04T21:25:18.089Z,9.20
2017-12-04T21:27:44.410Z,5.90
2017-12-04T21:30:10.735Z,7.93
2017-12-04T21:32:37.084Z,9.30
2017-12-04T21:35:03.545Z,7.43
2017-12-04T21:37:29.864Z,5.57
2017-12-04T21:39:56.208Z,7.17
2017-12-04T21:42:22.565Z,13.03
2017-12-04T21:44:49.693Z,9.60
2017-12-04T21:47:16.025Z,8.33
2017-12-04T21:49:43.098Z,7.53
2017-12-04T21:52:10.168Z,13.30
2017-12-04T21:54:36.489Z,8.80
2017-12-04T21:57:02.817Z,10.10
2017-12-04T21:59:29.136Z,8.60
2017-12-04T22:01:56.207Z,11.07
2017-12-04T22:04:22.532Z,12.00
2017-12-04T22:06:48.870Z,10.03
2017-12-04T22:09:15.243Z,8.90
2017-12-04T22:11:41.562Z,7.80
2017-12-04T22:14:07.914Z,9.47
2017-12-04T22:16:34.983Z,20.90
2017-12-04T22:19:02.057Z,7.23
2017-12-04T22:21:28.370Z,6.23
2017-12-04T22:23:54.706Z,9.83
2017-12-04T22:26:21.041Z,7.03
2017-12-04T22:28:47.378Z,13.53
2017-12-04T22:31:13.738Z,12.63
2017-12-04T22:33:40.079Z,8.30
2017-12-04T22:36:06.522Z,8.73
2017-12-04T22:38:32.865Z,12.00
2017-12-04T22:40:59.931Z,13.17
2017-12-04T22:43:26.370Z,11.23
2017-12-04T22:45:52.711Z,10.27
2017-12-04T22:48:19.037Z,10.13
2017-12-04T22:50:45.357Z,12.30
2017-12-04T22:53:11.689Z,12.77
2017-12-04T22:55:38.034Z,9.40
2017-12-04T22:58:04.392Z,10.10
2017-12-04T23:00:30.717Z,11.80
2017-12-04T23:02:58.050Z,12.67
2017-12-04T23:05:24.396Z,13.20
2017-12-04T23:07:50.751Z,15.27
2017-12-04T23:10:17.085Z,16.90
2017-12-04T23:12:43.411Z,17.27
2017-12-04T23:15:09.747Z,17.27
2017-12-04T23:17:36.087Z,19.57
2017-12-04T23:20:03.161Z,22.27
2017-12-04T23:22:30.256Z,17.90
2017-12-04T23:24:56.614Z,21.73
2017-12-04T23:27:23.690Z,19.33
2017-12-04T23:29:50.060Z,25.27
2017-12-04T23:32:16.385Z,19.30
2017-12-04T23:34:42.747Z,29.30
2017-12-04T23:37:09.075Z,30.67
2017-12-04T23:39:35.411Z,29.53
2017-12-04T23:42:01.749Z,30.93
2017-12-04T23:44:28.812Z,25.93
2017-12-04T23:46:55.882Z,30.70
2017-12-04T23:49:22.905Z,32.10
2017-12-04T23:51:49.981Z,24.97
2017-12-04T23:54:19.267Z,25.17
2017-12-04T23:56:45.596Z,24.37
2017-12-04T23:59:11.923Z,26.20
